Time;durP1;ratioP1;P1;durP2;ratioP2;P2;SDS_P1;SDS_P2;PMS_P1;PMS_P2;Temp;Humidity;BMP_temperature;BMP_pressure;BME280_temperature;BME280_humidity;BME280_pressure;Samples;Min_cycle;Max_cycle;Signal;HPM_P1;HPM_P2
2022/12/25 00:01:21;;;;;;;22.73;6.43;;;;;;;9.69;85.44;101200.94;3608919;39;20086;-63
2022/12/25 00:03:47;;;;;;;19.27;6.40;;;;;;;9.72;86.07;101204.31;3608941;39;20363;-63
2022/12/25 00:06:13;;;;;;;19.85;6.32;;;;;;;9.71;85.31;101199.03;3605810;39;20236;-64
2022/12/25 00:08:39;;;;;;;25.83;6.07;;;;;;;9.75;85.33;101187.19;3608374;39;20127;-63
2022/12/25 00:11:18;;;;;;;22.52;6.15;;;;;;;9.77;85.54;101198.72;3606785;39;20580;-63
2022/12/25 00:13:45;;;;;;;20.23;6.38;;;;;;;9.79;85.99;101199.47;3605714;39;20121;-63
2022/12/25 00:16:19;;;;;;;18.15;5.40;;;;;;;9.79;85.31;101193.25;3607237;39;20392;-64
2022/12/25 00:18:46;;;;;;;16.63;5.60;;;;;;;9.80;86.35;101201.25;3607376;39;20155;-63
2022/12/25 00:21:14;;;;;;;15.95;5.82;;;;;;;9.83;86.83;101198.41;3608479;39;20088;-64
2022/12/25 00:23:40;;;;;;;12.07;5.65;;;;;;;9.86;85.75;101198.22;3606609;39;20057;-63
2022/12/25 00:26:13;;;;;;;19.70;6.55;;;;;;;9.90;86.27;101193.56;3607093;39;20302;-63
2022/12/25 00:28:39;;;;;;;;;;;;;;;9.89;85.77;101195.34;3607917;39;20428;-64
2022/12/25 00:31:11;;;;;;;14.25;5.60;;;;;;;9.91;86.11;101196.16;3606030;39;19951;-64
2022/12/25 00:33:40;;;;;;;17.23;5.75;;;;;;;9.93;86.76;101196.97;3608062;39;20426;-64
2022/12/25 00:36:08;;;;;;;16.83;6.22;;;;;;;9.97;86.69;101194.97;3611974;39;20372;-64
2022/12/25 00:38:37;;;;;;;14.43;6.20;;;;;;;9.97;87.05;101189.59;3609695;39;20327;-64
2022/12/25 00:42:17;;;;;;;19.45;6.57;;;;;;;9.97;87.36;101186.91;3611564;39;20592;-64
2022/12/25 00:44:12;;;;;;;21.15;6.10;;;;;;;9.93;87.13;101174.59;3605289;39;20370;-64
2022/12/25 00:46:38;;;;;;;19.40;6.88;;;;;;;10.00;87.52;101187.63;3609899;39;20057;-63
2022/12/25 00:49:05;;;;;;;18.85;6.43;;;;;;;9.99;87.75;101180.50;3610518;39;20362;-64
2022/12/25 00:51:32;;;;;;;18.25;6.43;;;;;;;10.00;87.55;101186.75;3607092;39;20051;-64
2022/12/25 00:53:58;;;;;;;19.50;7.45;;;;;;;10.04;87.17;101188.31;3608228;39;20430;-63
2022/12/25 00:56:24;;;;;;;14.77;6.07;;;;;;;10.05;87.34;101190.03;3607576;39;20324;-64
2022/12/25 00:58:50;;;;;;;19.23;7.13;;;;;;;10.07;88.22;101179.22;3607823;39;20054;-64
2022/12/25 01:01:16;;;;;;;16.48;6.05;;;;;;;10.08;88.27;101173.75;3605255;39;20070;-64
2022/12/25 01:03:42;;;;;;;17.90;6.70;;;;;;;10.08;87.48;101179.13;3607535;39;20072;-63
2022/12/25 01:06:11;;;;;;;18.10;6.82;;;;;;;10.08;87.44;101176.44;3597854;39;20126;-62
2022/12/25 01:11:26;;;;;;;17.55;6.68;;;;;;;10.06;87.74;101170.31;3608606;39;20135;-62
2022/12/25 01:13:51;;;;;;;21.88;7.35;;;;;;;10.04;88.14;101169.50;3609704;39;20058;-65
2022/12/25 01:16:17;;;;;;;17.60;6.93;;;;;;;9.93;87.73;101148.63;3607582;39;20057;-63
2022/12/25 01:18:45;;;;;;;19.08;7.22;;;;;;;10.01;87.79;101177.72;3612659;39;20132;-64
2022/12/25 01:21:15;;;;;;;15.48;7.00;;;;;;;9.99;88.27;101169.78;3608560;39;20059;-63
2022/12/25 01:23:41;;;;;;;14.75;6.38;;;;;;;9.95;87.90;101164.63;3606668;39;20052;-63
2022/12/25 01:26:11;;;;;;;18.00;7.30;;;;;;;9.97;87.99;101171.66;3606647;39;20059;-64
2022/12/25 01:28:38;;;;;;;18.83;6.93;;;;;;;9.99;88.94;101177.84;3607097;39;20055;-64
2022/12/25 01:31:08;;;;;;;17.65;7.05;;;;;;;10.02;88.99;101183.97;3609485;39;20310;-63
2022/12/25 01:33:34;;;;;;;24.38;6.95;;;;;;;10.05;88.83;101189.16;3607153;39;20060;-64
2022/12/25 01:35:59;;;;;;;15.90;7.05;;;;;;;10.06;88.47;101197.16;3609093;39;20364;-64
2022/12/25 01:38:25;;;;;;;19.75;6.82;;;;;;;10.04;88.15;101184.75;3605671;39;20059;-63
2022/12/25 01:40:51;;;;;;;15.30;6.82;;;;;;;10.09;88.50;101194.31;3608652;39;20047;-63
2022/12/25 01:43:27;;;;;;;17.85;7.30;;;;;;;9.84;88.20;101148.25;3608496;39;20059;-64
2022/12/25 01:45:53;;;;;;;18.38;5.95;;;;;;;10.10;88.37;101187.97;3611328;39;20059;-63
2022/12/25 01:48:30;;;;;;;16.15;6.50;;;;;;;10.16;87.77;101203.78;3609558;39;20047;-63
2022/12/25 01:51:04;;;;;;;15.05;6.20;;;;;;;10.17;88.03;101210.00;3608243;39;20059;-63
2022/12/25 01:53:30;;;;;;;;;;;;;;;10.16;88.35;101205.59;3608746;39;20059;-63
2022/12/25 01:56:06;;;;;;;18.48;6.38;;;;;;;10.20;88.22;101216.06;3608169;39;19954;-63
2022/12/25 01:58:34;;;;;;;16.02;6.00;;;;;;;10.21;88.22;101223.22;3605011;39;20475;-63
2022/12/25 02:01:00;;;;;;;16.55;6.30;;;;;;;10.21;87.46;101227.69;3610966;39;20082;-63
2022/12/25 02:03:26;;;;;;;16.70;5.88;;;;;;;10.17;87.93;101216.25;3613164;39;20187;-62
2022/12/25 02:05:52;;;;;;;14.90;6.00;;;;;;;10.26;87.88;101225.66;3606355;39;20060;-63
2022/12/25 02:08:20;;;;;;;15.45;5.95;;;;;;;10.18;87.26;101209.03;3608192;39;20411;-63
2022/12/25 02:10:47;;;;;;;12.77;5.53;;;;;;;10.26;87.22;101222.97;3610401;39;20051;-62
2022/12/25 02:13:17;;;;;;;14.85;6.05;;;;;;;10.22;87.97;101219.56;3606526;39;20286;-63
2022/12/25 02:16:12;;;;;;;15.48;6.35;;;;;;;10.26;87.37;101222.97;3607637;39;20061;-63
2022/12/25 02:19:04;;;;;;;12.90;5.82;;;;;;;10.23;87.43;101218.59;3606751;39;20309;-63
2022/12/25 02:22:09;;;;;;;15.02;5.38;;;;;;;10.27;87.83;101227.38;3608643;39;20361;-64
2022/12/25 02:25:36;;;;;;;12.55;5.22;;;;;;;10.28;88.00;101230.97;3606498;39;20479;-64
2022/12/25 02:28:22;;;;;;;13.40;6.07;;;;;;;10.24;87.11;101232.91;3610399;39;20051;-64
2022/12/25 02:31:16;;;;;;;16.33;5.90;;;;;;;10.26;87.58;101224.78;3608292;39;20143;-64
2022/12/25 02:34:02;;;;;;;13.60;5.90;;;;;;;10.28;87.23;101225.59;3606835;39;20148;-64
2022/12/25 02:36:53;;;;;;;13.90;5.90;;;;;;;10.14;87.45;101199.44;3610436;39;20067;-64
2022/12/25 02:39:59;;;;;;;17.98;5.95;;;;;;;10.27;87.80;101216.66;3610076;39;20094;-64
2022/12/25 03:08:32;;;;;;;12.85;5.97;;;;;;;10.12;87.56;101169.97;3610679;39;20099;-64
2022/12/25 03:11:48;;;;;;;18.50;7.03;;;;;;;10.08;87.54;101165.69;3615161;39;20316;-64
2022/12/25 03:16:58;;;;;;;11.80;6.22;;;;;;;9.90;87.69;101116.56;3610394;39;20054;-64
2022/12/25 03:28:04;;;;;;;12.10;5.60;;;;;;;9.75;87.62;101128.13;3612210;39;20427;-64
2022/12/25 03:31:12;;;;;;;13.57;5.03;;;;;;;9.69;87.57;101121.25;3606299;39;20067;-64
2022/12/25 04:36:14;;;;;;;10.65;4.07;;;;;;;9.74;88.44;101115.66;3606675;39;20178;-62
2022/12/25 04:38:40;;;;;;;6.43;3.65;;;;;;;9.77;88.73;101111.00;3603656;39;20370;-62
2022/12/25 04:41:09;;;;;;;9.13;3.75;;;;;;;9.79;88.55;101108.19;3605381;39;20051;-63
2022/12/25 04:43:34;;;;;;;7.35;3.70;;;;;;;9.82;87.78;101117.91;3606756;39;20061;-62
2022/12/25 04:46:02;;;;;;;14.40;3.88;;;;;;;9.85;87.96;101107.88;3607601;39;20042;-63
2022/12/25 04:48:32;;;;;;;11.20;3.50;;;;;;;9.87;88.29;101103.31;3607928;39;20058;-62
2022/12/25 04:51:08;;;;;;;9.13;3.50;;;;;;;9.89;87.69;101103.19;3608966;39;20051;-64
2022/12/25 04:53:34;;;;;;;10.75;3.22;;;;;;;9.80;87.26;101083.13;3599385;39;20059;-63
2022/12/25 04:56:01;;;;;;;7.60;3.13;;;;;;;9.70;87.76;101071.13;3609454;39;20171;-64
2022/12/25 04:58:27;;;;;;;9.68;3.50;;;;;;;9.87;87.48;101097.06;3609573;39;20062;-62
2022/12/25 05:00:52;;;;;;;7.50;3.10;;;;;;;9.86;87.27;101095.31;3609006;39;20065;-63
2022/12/25 05:03:18;;;;;;;7.47;3.20;;;;;;;9.84;86.75;101079.31;3606488;39;20406;-64
2022/12/25 05:05:43;;;;;;;10.68;3.28;;;;;;;9.84;86.79;101087.34;3608493;39;20114;-63
2022/12/25 05:08:10;;;;;;;5.88;3.00;;;;;;;9.85;87.32;101086.41;3606254;39;20057;-63
2022/12/25 05:10:39;;;;;;;7.07;2.95;;;;;;;9.85;86.75;101091.75;3603458;39;20063;-63
2022/12/25 05:13:05;;;;;;;8.77;3.40;;;;;;;9.87;87.22;101078.28;3607947;39;20063;-63
2022/12/25 05:15:30;;;;;;;6.97;3.00;;;;;;;9.91;87.10;101083.38;3608957;39;20051;-63
2022/12/25 05:17:56;;;;;;;6.57;2.55;;;;;;;9.95;86.62;101081.38;3610210;39;20046;-63
2022/12/25 05:20:21;;;;;;;4.50;2.67;;;;;;;9.98;86.83;101092.81;3608436;39;20063;-63
2022/12/25 05:22:47;;;;;;;7.40;2.75;;;;;;;10.02;87.04;101087.28;3607185;39;20113;-63
2022/12/25 05:25:12;;;;;;;9.70;3.10;;;;;;;9.98;86.55;101071.34;3606353;39;20058;-63
2022/12/25 05:27:38;;;;;;;8.20;3.17;;;;;;;10.08;86.34;101073.50;3610042;39;20094;-63
2022/12/25 05:30:04;;;;;;;9.07;3.45;;;;;;;10.09;86.71;101068.06;3607460;39;20474;-63
2022/12/25 05:32:30;;;;;;;7.78;2.70;;;;;;;10.13;85.81;101060.69;3605509;39;20058;-63
2022/12/25 05:34:56;;;;;;;4.63;2.80;;;;;;;10.14;85.92;101038.25;3605812;39;20055;-62
2022/12/25 05:37:22;;;;;;;6.05;2.75;;;;;;;10.11;85.97;101038.41;3604311;39;20155;-62
2022/12/25 05:39:47;;;;;;;8.05;2.83;;;;;;;10.16;85.93;101041.72;3606142;39;20062;-63
2022/12/25 05:42:13;;;;;;;7.68;2.63;;;;;;;10.19;85.80;101046.94;3608839;39;20043;-62
2022/12/25 05:44:38;;;;;;;7.43;2.90;;;;;;;10.21;86.00;101053.06;3604676;39;20051;-64
2022/12/25 05:47:04;;;;;;;5.13;3.00;;;;;;;10.22;85.32;101053.00;3607213;39;20057;-62
2022/12/25 05:49:30;;;;;;;5.78;2.40;;;;;;;10.16;85.65;101047.09;3608369;39;20393;-64
2022/12/25 05:51:55;;;;;;;7.97;3.05;;;;;;;10.23;85.29;101054.72;3607641;39;20039;-63
2022/12/25 05:54:21;;;;;;;8.93;2.70;;;;;;;10.27;85.96;101059.94;3602053;39;20070;-62
2022/12/25 05:56:47;;;;;;;6.07;2.50;;;;;;;10.27;85.63;101055.44;3605170;39;20063;-62
2022/12/25 05:59:12;;;;;;;5.63;2.63;;;;;;;10.32;85.81;101053.38;3602735;39;20059;-63
2022/12/25 06:01:38;;;;;;;7.15;2.50;;;;;;;10.34;85.22;101043.41;3602253;39;20062;-63
2022/12/25 06:04:03;;;;;;;5.38;2.50;;;;;;;10.36;85.17;101043.31;3602183;39;20576;-62
2022/12/25 06:06:29;;;;;;;9.77;2.65;;;;;;;10.34;84.45;101043.41;3606302;39;20306;-63
2022/12/25 06:08:55;;;;;;;6.00;2.50;;;;;;;10.35;85.27;101042.44;3605522;39;20386;-63
2022/12/25 06:11:20;;;;;;;6.50;2.30;;;;;;;10.16;85.03;101010.34;3604133;39;20218;-63
2022/12/25 06:13:51;;;;;;;6.82;2.40;;;;;;;10.37;85.28;101035.16;3604800;39;20480;-63
2022/12/25 06:16:17;;;;;;;5.50;2.40;;;;;;;10.39;84.84;101035.06;3605721;39;20409;-62
2022/12/25 06:18:47;;;;;;;5.85;2.60;;;;;;;10.39;85.01;101030.56;3602194;39;20043;-62
2022/12/25 06:21:14;;;;;;;6.20;2.40;;;;;;;10.39;84.79;101018.94;3604198;39;20055;-62
2022/12/25 06:23:41;;;;;;;6.45;2.30;;;;;;;10.42;84.54;101011.56;3603517;39;20051;-62
2022/12/25 06:26:13;;;;;;;4.32;2.40;;;;;;;10.44;84.58;101015.03;3603093;39;20425;-62
2022/12/25 06:28:40;;;;;;;4.47;2.10;;;;;;;10.47;84.79;101013.13;3608999;39;20085;-62
2022/12/25 06:31:15;;;;;;;6.13;2.38;;;;;;;10.48;84.70;101020.22;3606387;39;20256;-62
2022/12/25 06:33:42;;;;;;;6.93;2.70;;;;;;;10.49;84.38;101016.59;3606922;39;20079;-62
2022/12/25 06:36:24;;;;;;;7.68;2.70;;;;;;;10.47;84.52;101008.63;3609886;39;20050;-64
2022/12/25 06:38:50;;;;;;;5.32;2.63;;;;;;;10.51;84.32;100999.41;3606063;39;20051;-62
2022/12/25 06:41:23;;;;;;;7.65;2.80;;;;;;;10.51;84.22;100994.03;3602959;39;20420;-63
2022/12/25 06:43:52;;;;;;;6.70;2.40;;;;;;;10.49;84.07;100995.94;3604674;39;20508;-62
2022/12/25 06:46:20;;;;;;;10.40;2.88;;;;;;;10.49;84.13;100985.19;3603475;39;20103;-63
2022/12/25 06:48:49;;;;;;;5.13;2.35;;;;;;;10.49;83.96;100974.44;3604991;39;20378;-63
2022/12/25 06:51:18;;;;;;;10.75;3.25;;;;;;;10.50;84.21;100981.56;3603148;39;20052;-62
2022/12/25 06:53:44;;;;;;;5.82;2.80;;;;;;;10.51;84.85;100958.25;3607009;39;20123;-62
2022/12/25 06:56:14;;;;;;;5.70;2.67;;;;;;;10.49;83.80;100946.69;3603220;39;20048;-63
2022/12/25 06:58:48;;;;;;;4.72;2.67;;;;;;;10.51;84.24;100944.81;3602127;39;20053;-63
2022/12/25 07:01:47;;;;;;;7.53;2.67;;;;;;;10.39;84.26;100931.13;3602430;39;20047;-62
2022/12/25 07:04:20;;;;;;;5.07;2.50;;;;;;;10.45;83.90;100938.81;3604419;39;20372;-62
2022/12/25 07:06:46;;;;;;;5.23;2.40;;;;;;;10.52;83.87;100951.91;3603879;39;20058;-62
2022/12/25 07:09:11;;;;;;;4.90;2.60;;;;;;;10.52;84.08;100951.91;3602494;39;20074;-62
2022/12/25 07:11:37;;;;;;;6.95;2.90;;;;;;;10.50;83.62;100948.41;3602657;39;20115;-63
2022/12/25 07:14:03;;;;;;;7.70;2.40;;;;;;;10.52;83.62;100962.66;3601072;39;20086;-62
2022/12/25 07:16:28;;;;;;;5.88;2.50;;;;;;;10.52;83.62;100957.28;3604816;39;20059;-62
2022/12/25 07:18:54;;;;;;;6.53;2.60;;;;;;;10.54;83.90;100961.59;3605264;39;20346;-62
2022/12/25 07:21:20;;;;;;;6.68;2.75;;;;;;;10.55;83.39;100962.47;3607117;39;20059;-62
2022/12/25 07:23:48;;;;;;;6.75;2.78;;;;;;;10.55;83.58;100973.22;3611148;39;20089;-62
2022/12/25 07:26:16;;;;;;;10.30;2.65;;;;;;;10.56;83.80;100985.69;3605546;39;20091;-64
2022/12/25 07:28:42;;;;;;;6.30;2.78;;;;;;;10.58;83.87;100994.53;3605104;39;20051;-62
2022/12/25 07:31:16;;;;;;;6.22;2.33;;;;;;;10.61;83.58;100997.06;3604223;39;20051;-62
2022/12/25 07:33:42;;;;;;;18.80;10.50;;;;;;;10.61;83.13;100991.66;3607513;39;20047;-62
2022/12/25 07:36:10;;;;;;;15.13;4.60;;;;;;;10.60;83.05;100993.50;3607689;39;20120;-63
2022/12/25 07:38:36;;;;;;;4.95;3.03;;;;;;;10.59;83.31;100985.50;3605534;39;20079;-63
2022/12/25 07:41:02;;;;;;;5.38;2.53;;;;;;;10.58;83.02;100981.09;3604154;39;20059;-63
2022/12/25 07:43:27;;;;;;;4.75;2.47;;;;;;;10.57;83.48;100960.56;3604194;39;20043;-62
2022/12/25 07:45:58;;;;;;;6.20;2.53;;;;;;;10.49;83.63;100944.00;3603480;39;20067;-63
2022/12/25 07:48:26;;;;;;;4.97;2.78;;;;;;;10.44;83.71;100955.06;3606126;39;20099;-62
2022/12/25 07:51:05;;;;;;;4.65;2.65;;;;;;;10.31;84.04;100938.78;3608099;39;20089;-62
2022/12/25 07:53:31;;;;;;;5.97;2.45;;;;;;;10.18;83.53;100921.59;3603519;39;20047;-63
2022/12/25 07:56:20;;;;;;;17.08;10.50;;;;;;;10.45;83.72;100973.75;3608161;39;20051;-63
2022/12/25 07:58:47;;;;;;;18.80;9.23;;;;;;;10.44;84.07;100988.16;3602696;39;20094;-62
2022/12/25 08:01:20;;;;;;;10.85;5.65;;;;;;;10.45;84.46;101006.00;3607385;39;20059;-63
2022/12/25 08:03:53;;;;;;;8.05;3.80;;;;;;;10.44;83.99;101009.66;3607474;39;20051;-62
2022/12/25 08:06:21;;;;;;;6.50;2.90;;;;;;;10.40;83.93;101007.22;3603959;39;20054;-63
2022/12/25 08:08:47;;;;;;;8.63;2.78;;;;;;;10.44;83.66;101011.50;3604411;39;20260;-62
2022/12/25 08:11:14;;;;;;;6.57;2.70;;;;;;;10.43;84.09;101017.78;3603963;39;20062;-63
2022/12/25 08:13:39;;;;;;;7.57;2.70;;;;;;;10.42;83.71;101021.44;3609857;39;20157;-63
2022/12/25 08:16:09;;;;;;;9.43;3.00;;;;;;;10.40;83.96;101044.84;3607723;39;20059;-63
2022/12/25 08:18:37;;;;;;;5.80;2.63;;;;;;;10.39;84.37;101043.97;3606582;39;20062;-63
2022/12/25 08:21:05;;;;;;;6.82;2.83;;;;;;;10.41;83.86;101047.47;3604488;39;20051;-62
2022/12/25 08:23:35;;;;;;;5.00;2.47;;;;;;;10.41;84.70;101043.91;3606321;39;20353;-63
2022/12/25 08:26:03;;;;;;;6.28;2.67;;;;;;;10.34;84.62;101003.09;3604492;39;20065;-63
2022/12/25 08:28:29;;;;;;;6.35;3.17;;;;;;;10.34;84.20;101005.78;3607266;39;20398;-63
2022/12/25 08:30:56;;;;;;;8.70;2.97;;;;;;;10.40;83.96;101013.50;3611765;39;20071;-63
2022/12/25 08:33:22;;;;;;;8.70;2.85;;;;;;;10.41;84.17;101017.91;3607290;39;20521;-63
2022/12/25 08:35:47;;;;;;;7.45;2.72;;;;;;;10.43;84.40;101034.81;3606754;39;20425;-63
2022/12/25 08:38:13;;;;;;;4.53;2.70;;;;;;;10.44;83.59;101025.78;3605758;39;20049;-63
2022/12/25 08:40:39;;;;;;;4.80;2.80;;;;;;;10.46;84.14;101039.13;3608466;39;20050;-64
2022/12/25 08:43:04;;;;;;;4.47;2.60;;;;;;;10.47;83.45;101034.63;3608336;39;20043;-63
2022/12/25 08:45:31;;;;;;;6.03;2.63;;;;;;;10.45;83.68;101043.63;3607533;39;20314;-65
2022/12/25 08:47:57;;;;;;;8.05;2.65;;;;;;;10.48;83.67;101047.13;3609938;39;20104;-64
2022/12/25 08:50:24;;;;;;;4.15;2.95;;;;;;;10.47;84.00;101045.38;3608977;39;20066;-65
2022/12/25 08:52:50;;;;;;;6.78;2.85;;;;;;;10.47;83.94;101053.44;3607224;39;20051;-64
2022/12/25 08:55:16;;;;;;;7.05;3.00;;;;;;;10.45;83.47;101032.88;3605190;39;20124;-65
2022/12/25 08:57:42;;;;;;;5.78;3.08;;;;;;;10.43;84.19;101029.44;3608256;39;20443;-65
2022/12/25 09:00:09;;;;;;;7.60;3.45;;;;;;;10.41;83.76;101015.22;3607739;39;20162;-66
2022/12/25 09:02:35;;;;;;;5.53;2.88;;;;;;;10.40;83.69;101021.56;3608783;39;20135;-66
2022/12/25 09:05:01;;;;;;;6.97;3.10;;;;;;;10.30;84.20;101004.22;3609950;39;20301;-68
2022/12/25 09:07:26;;;;;;;4.47;3.22;;;;;;;10.36;84.08;101008.38;3608667;39;20337;-66
2022/12/25 09:09:52;;;;;;;7.15;2.97;;;;;;;10.34;84.32;101003.09;3606717;39;20074;-66
2022/12/25 09:12:17;;;;;;;7.95;3.30;;;;;;;10.34;84.42;100992.34;3604518;39;20425;-66
2022/12/25 09:14:43;;;;;;;6.75;3.22;;;;;;;10.36;85.16;101006.53;3606033;39;20054;-66
2022/12/25 09:17:08;;;;;;;10.35;3.95;;;;;;;10.37;85.04;101019.03;3607140;39;20055;-67
2022/12/25 09:19:34;;;;;;;6.43;3.80;;;;;;;10.38;84.74;101028.81;3606750;39;20149;-67
2022/12/25 09:22:00;;;;;;;8.35;3.72;;;;;;;10.37;85.38;101029.78;3607511;39;20078;-67
2022/12/25 09:24:25;;;;;;;9.73;3.50;;;;;;;10.36;85.59;101028.03;3602730;39;20390;-67
2022/12/25 09:26:51;;;;;;;9.30;3.63;;;;;;;10.38;85.38;101020.78;3607681;39;20068;-67
2022/12/25 09:29:17;;;;;;;7.75;3.47;;;;;;;10.38;85.94;101010.03;3604271;39;20074;-67
2022/12/25 09:31:43;;;;;;;9.35;3.60;;;;;;;10.37;86.11;101010.09;3609329;39;20343;-68
2022/12/25 09:34:09;;;;;;;6.82;3.72;;;;;;;10.37;86.49;101019.03;3604961;39;20075;-67
2022/12/25 09:36:35;;;;;;;6.40;3.80;;;;;;;10.37;86.63;101005.59;3607327;39;20087;-67
2022/12/25 09:39:01;;;;;;;6.97;3.83;;;;;;;10.25;86.70;100967.81;3606539;39;20043;-67
2022/12/25 09:41:51;;;;;;;6.53;3.70;;;;;;;10.38;86.56;100985.84;3607204;39;20582;-65
2022/12/25 09:44:36;;;;;;;7.15;3.65;;;;;;;10.36;86.70;100987.72;3605219;39;20132;-65
2022/12/25 09:47:11;;;;;;;10.02;4.15;;;;;;;10.39;86.80;100992.06;3607523;39;20108;-66
2022/12/25 09:49:47;;;;;;;8.07;3.72;;;;;;;10.41;87.19;100996.41;3609775;39;20055;-65
2022/12/25 09:52:31;;;;;;;6.40;3.60;;;;;;;10.44;86.72;100998.91;3604567;39;20062;-67
2022/12/25 09:55:17;;;;;;;;;;;;;;;10.42;86.68;100982.00;3608053;39;20339;-65
2022/12/25 09:57:48;;;;;;;6.28;3.53;;;;;;;10.43;86.85;100980.19;3607505;39;19931;-68
2022/12/25 10:00:18;;;;;;;6.63;3.72;;;;;;;10.43;86.97;100981.06;3608977;39;20063;-67
2022/12/25 10:03:20;;;;;;;4.97;3.85;;;;;;;10.42;86.41;100979.31;3604597;39;20332;-66
2022/12/25 10:05:58;;;;;;;7.05;3.92;;;;;;;10.42;86.68;100962.31;3607022;39;20406;-67
2022/12/25 10:08:53;;;;;;;6.78;3.40;;;;;;;10.42;86.69;100959.63;3607618;39;20058;-65
2022/12/25 10:11:46;;;;;;;7.13;4.32;;;;;;;9.79;87.19;100853.16;3607379;39;20280;-67
2022/12/25 10:14:37;;;;;;;17.95;10.10;;;;;;;10.40;87.07;100959.75;3606042;39;20046;-66
2022/12/25 10:17:52;;;;;;;10.70;6.47;;;;;;;10.41;87.45;100953.41;3610235;39;20390;-66
2022/12/25 10:20:59;;;;;;;6.85;5.10;;;;;;;10.39;87.51;100963.38;3603924;39;20053;-67
2022/12/25 10:23:33;;;;;;;10.63;5.10;;;;;;;10.43;87.63;100959.56;3609084;39;20060;-66
2022/12/25 10:25:58;;;;;;;10.85;5.22;;;;;;;10.45;87.94;100946.03;3598637;39;20155;-67
2022/12/25 10:28:45;;;;;;;11.88;5.07;;;;;;;10.47;87.86;100945.94;3606555;39;20055;-66
2022/12/25 10:31:27;;;;;;;6.78;4.75;;;;;;;10.47;87.38;100946.81;3607569;39;20126;-67
2022/12/25 10:33:53;;;;;;;9.18;5.05;;;;;;;10.47;87.48;100945.94;3606287;39;20043;-67
2022/12/25 10:36:26;;;;;;;6.43;4.30;;;;;;;10.45;87.40;100952.25;3605360;39;20132;-66
2022/12/25 10:38:53;;;;;;;7.22;4.43;;;;;;;10.47;87.65;100945.94;3605288;39;20051;-66
2022/12/25 10:41:52;;;;;;;8.77;4.72;;;;;;;10.49;87.52;100952.06;3600219;39;20293;-66
2022/12/25 10:44:25;;;;;;;9.48;4.63;;;;;;;10.50;87.16;100953.78;3609334;39;20055;-66
2022/12/25 10:46:57;;;;;;;9.43;4.55;;;;;;;10.46;87.32;100937.00;3607631;39;20087;-67
2022/12/25 10:49:31;;;;;;;7.25;4.55;;;;;;;10.46;87.39;100937.00;3610984;39;20166;-67
2022/12/25 10:51:57;;;;;;;;;;;;;;;10.40;87.87;100918.53;3611127;39;20051;-67
2022/12/25 10:54:35;;;;;;;6.60;4.35;;;;;;;10.42;87.85;100917.50;3610688;39;19947;-68
2022/12/25 10:57:07;;;;;;;8.68;5.00;;;;;;;10.42;88.08;100900.53;3605654;39;20036;-66
2022/12/25 10:59:50;;;;;;;6.78;5.07;;;;;;;10.42;87.60;100897.84;3607670;39;20081;-66
2022/12/25 11:02:26;;;;;;;8.77;5.40;;;;;;;10.42;88.46;100887.94;3609855;39;20069;-67
2022/12/25 11:05:04;;;;;;;11.15;5.22;;;;;;;10.44;88.47;100895.94;3607455;39;20397;-66
2022/12/25 11:07:37;;;;;;;9.25;4.95;;;;;;;10.44;88.55;100899.47;3607053;39;20066;-66
2022/12/25 11:10:34;;;;;;;9.30;5.35;;;;;;;10.47;88.27;100908.31;3606092;39;20313;-66
2022/12/25 11:13:04;;;;;;;8.10;5.30;;;;;;;10.50;88.52;100905.41;3609714;39;20082;-67
2022/12/25 11:15:40;;;;;;;10.15;5.57;;;;;;;10.52;88.50;100899.00;3609381;39;20042;-68
2022/12/25 11:18:24;;;;;;;8.38;4.88;;;;;;;10.55;88.38;100888.06;3606897;39;20054;-69
2022/12/25 11:20:59;;;;;;;13.10;5.70;;;;;;;10.57;88.96;100882.63;3606783;39;20059;-68
2022/12/25 11:23:29;;;;;;;9.13;5.20;;;;;;;10.58;88.85;100871.75;3607852;39;20058;-69
2022/12/25 11:26:05;;;;;;;10.27;5.65;;;;;;;10.57;88.47;100861.09;3608705;39;20059;-69
2022/12/25 11:28:35;;;;;;;9.27;5.55;;;;;;;10.41;88.53;100821.72;3610059;39;20066;-68
2022/12/25 11:31:18;;;;;;;8.40;5.50;;;;;;;10.59;89.22;100848.41;3609950;39;20360;-68
2022/12/25 11:34:05;;;;;;;8.20;5.63;;;;;;;10.60;88.89;100847.47;3608181;39;20070;-68
2022/12/25 11:36:45;;;;;;;9.02;5.88;;;;;;;10.61;88.73;100844.69;3607728;39;20047;-67
2022/12/25 11:39:33;;;;;;;9.15;6.03;;;;;;;10.60;88.76;100837.59;3607038;39;20063;-72
2022/12/25 11:42:19;;;;;;;9.38;6.72;;;;;;;10.59;88.43;100837.66;3613919;39;20303;-68
2022/12/25 11:45:07;;;;;;;11.93;6.13;;;;;;;10.58;88.94;100834.13;3609597;39;20433;-68
2022/12/25 11:47:57;;;;;;;11.55;6.97;;;;;;;10.58;88.66;100836.81;3612505;39;20055;-69
2022/12/25 11:50:45;;;;;;;12.52;6.15;;;;;;;10.55;88.46;100820.88;3610022;39;20488;-66
2022/12/25 11:53:36;;;;;;;10.52;6.47;;;;;;;10.56;89.04;100819.03;3612230;39;20063;-68
2022/12/25 11:56:10;;;;;;;9.05;5.93;;;;;;;10.55;88.58;100814.63;3613434;39;20047;-66
2022/12/25 11:58:51;;;;;;;8.73;6.22;;;;;;;10.47;89.23;100803.50;3608809;39;20063;-67
2022/12/25 12:01:56;;;;;;;11.00;6.32;;;;;;;10.45;89.00;100807.13;3611640;39;20103;-66
2022/12/25 12:04:30;;;;;;;8.38;6.20;;;;;;;10.46;89.08;100802.63;3610131;39;20077;-66
2022/12/25 12:07:25;;;;;;;10.75;6.22;;;;;;;10.45;89.36;100814.34;3609197;39;20061;-66
2022/12/25 12:10:08;;;;;;;10.43;6.78;;;;;;;10.45;89.43;100817.03;3609427;39;20059;-66
2022/12/25 12:12:54;;;;;;;9.13;6.43;;;;;;;10.44;89.16;100808.09;3610855;39;20057;-65
2022/12/25 12:15:40;;;;;;;9.95;7.00;;;;;;;10.45;89.67;100819.72;3610875;39;20081;-66
2022/12/25 12:18:21;;;;;;;9.30;7.30;;;;;;;10.46;89.96;100808.00;3606508;39;20051;-66
2022/12/25 12:21:24;;;;;;;10.85;7.00;;;;;;;10.49;89.53;100802.44;3614260;39;21285;-66
2022/12/25 12:24:11;;;;;;;8.77;7.20;;;;;;;10.52;89.35;100796.00;3611532;39;20054;-66
2022/12/25 12:26:43;;;;;;;8.88;7.55;;;;;;;10.54;89.57;100799.47;3607785;39;20051;-67
2022/12/25 12:29:28;;;;;;;10.90;7.75;;;;;;;10.55;89.85;100785.06;3610436;39;20055;-66
2022/12/25 12:32:00;;;;;;;9.00;7.60;;;;;;;10.57;89.96;100785.84;3610156;39;20047;-66
2022/12/25 12:34:46;;;;;;;10.00;8.93;;;;;;;10.57;89.87;100775.09;3607002;39;20406;-67
2022/12/25 12:37:36;;;;;;;11.77;8.65;;;;;;;10.58;89.79;100768.75;3610464;39;20440;-68
2022/12/25 12:40:20;;;;;;;11.10;9.40;;;;;;;10.65;90.04;100770.09;3609146;39;20059;-67
2022/12/25 12:42:49;;;;;;;15.00;9.57;;;;;;;10.67;89.45;100768.16;3601920;39;20095;-65
2022/12/25 12:45:23;;;;;;;12.75;10.50;;;;;;;10.68;89.19;100767.19;3611932;39;20051;-66
2022/12/25 12:47:51;;;;;;;12.77;10.30;;;;;;;10.69;89.07;100771.63;3606377;39;20055;-66
2022/12/25 12:50:43;;;;;;;15.35;10.70;;;;;;;10.54;89.65;100745.72;3611250;39;20363;-66
2022/12/25 12:53:20;;;;;;;13.82;11.30;;;;;;;10.70;89.55;100767.97;3608587;39;20035;-66
2022/12/25 12:55:45;;;;;;;15.68;11.35;;;;;;;10.73;89.67;100766.94;3611529;39;20441;-67
2022/12/25 12:58:34;;;;;;;15.50;12.00;;;;;;;10.75;89.79;100773.06;3608163;39;20082;-66
2022/12/25 13:01:22;;;;;;;16.02;13.05;;;;;;;10.76;88.82;100767.59;3607894;39;20055;-67
2022/12/25 13:04:17;;;;;;;13.93;11.35;;;;;;;10.74;89.54;100764.13;3609530;39;20075;-67
2022/12/25 13:07:18;;;;;;;14.82;11.57;;;;;;;10.74;89.24;100758.75;3611119;39;20073;-67
2022/12/25 13:09:52;;;;;;;13.63;11.52;;;;;;;10.76;89.41;100754.16;3609012;39;20107;-68
2022/12/25 13:12:21;;;;;;;70.35;58.60;;;;;;;10.76;89.51;100739.84;3612676;39;20086;-68
2022/12/25 13:14:49;;;;;;;38.50;28.38;;;;;;;10.77;89.78;100730.81;3609798;39;20405;-66
2022/12/25 13:17:24;;;;;;;30.63;22.02;;;;;;;10.79;90.06;100724.38;3609287;39;20063;-66
2022/12/25 13:19:56;;;;;;;14.65;11.73;;;;;;;10.82;89.72;100715.25;3610136;39;20154;-67
2022/12/25 13:22:33;;;;;;;19.25;15.55;;;;;;;10.85;89.41;100717.75;3608640;39;20050;-66
2022/12/25 13:25:21;;;;;;;13.93;11.63;;;;;;;10.87;89.60;100716.66;3607636;39;20058;-67
2022/12/25 13:27:56;;;;;;;14.10;12.15;;;;;;;10.89;89.14;100712.06;3610324;39;20104;-68
2022/12/25 13:30:23;;;;;;;19.10;14.88;;;;;;;10.91;89.51;100710.16;3608411;39;20306;-68
2022/12/25 13:32:49;;;;;;;15.00;12.85;;;;;;;10.91;89.26;100703.91;3609797;39;20067;-68
2022/12/25 13:35:17;;;;;;;12.07;10.50;;;;;;;10.85;89.05;100694.41;3609070;39;20564;-68